createdAt,value
2023-04-15T00:02:24.654Z,98073.81
2023-04-15T00:04:53.390Z,98064.81
2023-04-15T00:07:21.983Z,98070.06
2023-04-15T00:09:55.038Z,98064.13
2023-04-15T00:12:23.650Z,98068.88
2023-04-15T00:14:52.266Z,98065.50
2023-04-15T00:17:21.258Z,98063.91
2023-04-15T00:19:49.878Z,98063.31
2023-04-15T00:22:18.720Z,98074.53
2023-04-15T00:24:47.338Z,98069.31
2023-04-15T00:27:17.265Z,98064.72
2023-04-15T00:29:45.902Z,98066.56
2023-04-15T00:32:14.544Z,98068.56
2023-04-15T00:34:43.405Z,98068.97
2023-04-15T00:37:12.569Z,98063.38
2023-04-15T00:39:41.234Z,98053.41
2023-04-15T00:42:10.567Z,98057.41
2023-04-15T00:44:40.989Z,98056.59
2023-04-15T00:47:10.046Z,98056.78
2023-04-15T00:49:38.666Z,98061.81
2023-04-15T00:52:07.309Z,98050.63
2023-04-15T00:54:36.406Z,98063.41
2023-04-15T00:57:06.715Z,98061.41
2023-04-15T00:59:35.597Z,98062.00
2023-04-15T01:02:05.843Z,98064.38
2023-04-15T01:04:34.541Z,98062.19
2023-04-15T01:07:03.388Z,98067.38
2023-04-15T01:09:32.134Z,98064.38
2023-04-15T01:12:00.749Z,98064.22
2023-04-15T01:14:30.180Z,98074.75
2023-04-15T01:16:58.900Z,98071.38
2023-04-15T01:19:28.959Z,98063.00
2023-04-15T01:21:57.555Z,98068.59
2023-04-15T01:24:27.904Z,98066.97
2023-04-15T01:26:58.471Z,98062.00
2023-04-15T01:29:27.380Z,98059.41
2023-04-15T01:31:57.440Z,98065.56
2023-04-15T01:34:26.336Z,98062.97
2023-04-15T01:36:54.923Z,98065.56
2023-04-15T01:39:23.569Z,98060.19
2023-04-15T01:41:52.271Z,98067.97
2023-04-15T01:44:22.683Z,98058.19
2023-04-15T01:46:51.311Z,98062.16
2023-04-15T01:49:20.063Z,98068.75
2023-04-15T01:51:48.750Z,98067.75
2023-04-15T01:54:17.356Z,98066.53
2023-04-15T01:56:45.921Z,98072.53
2023-04-15T01:59:14.631Z,98068.56
2023-04-15T02:01:45.181Z,98070.75
2023-04-15T02:04:16.619Z,98063.78
2023-04-15T02:06:45.251Z,98061.34
2023-04-15T02:09:14.036Z,98061.34
2023-04-15T02:11:42.654Z,98058.75
2023-04-15T02:14:11.253Z,98057.75
2023-04-15T02:16:39.947Z,98060.94
2023-04-15T02:19:10.024Z,98048.75
2023-04-15T02:21:38.619Z,98048.97
2023-04-15T02:24:07.754Z,98050.94
2023-04-15T02:26:36.378Z,98053.91
2023-04-15T02:29:05.120Z,98063.13
2023-04-15T02:31:36.956Z,98062.91
2023-04-15T02:34:05.833Z,98056.75
2023-04-15T02:36:35.751Z,98055.53
2023-04-15T02:39:04.497Z,98055.72
2023-04-15T02:41:33.205Z,98052.53
2023-04-15T02:44:03.023Z,98055.31
2023-04-15T02:46:32.248Z,98052.72
2023-04-15T02:49:01.234Z,98051.88
2023-04-15T02:51:31.983Z,98050.31
2023-04-15T02:54:01.967Z,98053.66
2023-04-15T02:56:31.294Z,98046.09
2023-04-15T02:59:00.050Z,98047.28
2023-04-15T03:01:28.834Z,98050.06
2023-04-15T03:03:57.500Z,98046.88
2023-04-15T03:06:26.274Z,98052.84
2023-04-15T03:08:54.859Z,98051.84
2023-04-15T03:11:24.821Z,98055.63
2023-04-15T03:13:53.372Z,98057.56
2023-04-15T03:16:22.329Z,98052.63
2023-04-15T03:18:51.061Z,98052.41
2023-04-15T03:21:20.001Z,98058.38
2023-04-15T03:23:49.830Z,98051.25
2023-04-15T03:26:29.862Z,98054.56
2023-04-15T03:28:59.084Z,98049.53
2023-04-15T03:31:27.935Z,98051.06
2023-04-15T03:33:56.649Z,98047.94
2023-04-15T03:36:25.256Z,98053.28
2023-04-15T03:38:53.987Z,98051.09
2023-04-15T03:41:22.581Z,98052.75
2023-04-15T03:43:52.734Z,98050.31
2023-04-15T03:46:21.523Z,98058.75
2023-04-15T03:48:50.180Z,98059.84
2023-04-15T03:51:18.967Z,98059.91
2023-04-15T03:53:47.543Z,98049.69
2023-04-15T03:56:16.148Z,98048.31
2023-04-15T03:58:44.853Z,98043.16
2023-04-15T04:01:14.961Z,98046.78
2023-04-15T04:03:43.753Z,98057.13
2023-04-15T04:06:12.734Z,98062.69
2023-04-15T04:08:41.433Z,98061.09
2023-04-15T04:11:10.215Z,98065.53
2023-04-15T04:13:38.814Z,98066.50
2023-04-15T04:16:08.275Z,98062.50
2023-04-15T04:18:38.407Z,98065.66
2023-04-15T04:21:07.456Z,98069.81
2023-04-15T04:23:36.029Z,98067.59
2023-04-15T04:26:04.658Z,98075.56
2023-04-15T04:28:33.366Z,98086.31
2023-04-15T04:31:02.361Z,98076.63
2023-04-15T04:33:31.028Z,98075.78
2023-04-15T04:36:00.997Z,98074.19
2023-04-15T04:38:29.520Z,98078.88
2023-04-15T04:40:58.183Z,98088.09
2023-04-15T04:43:27.127Z,98087.38
2023-04-15T04:45:55.828Z,98086.34
2023-04-15T04:48:24.534Z,98097.84
2023-04-15T04:50:53.321Z,98088.34
2023-04-15T04:53:23.404Z,98103.22
2023-04-15T04:55:52.222Z,98091.31
2023-04-15T04:58:21.388Z,98093.53
2023-04-15T05:00:50.004Z,98095.72
2023-04-15T05:03:19.101Z,98099.91
2023-04-15T05:05:49.318Z,98089.25
2023-04-15T05:08:17.982Z,98092.03
2023-04-15T05:10:47.941Z,98098.47
2023-04-15T05:13:16.525Z,98098.47
2023-04-15T05:15:45.430Z,98088.16
2023-04-15T05:18:14.061Z,98095.41
2023-04-15T05:20:42.664Z,98097.00
2023-04-15T05:23:11.250Z,98105.00
2023-04-15T05:25:39.872Z,98098.00
2023-04-15T05:28:09.829Z,98099.22
2023-04-15T05:30:38.423Z,98104.25
2023-04-15T05:33:07.179Z,98100.13
2023-04-15T05:35:35.842Z,98105.69
2023-04-15T05:38:04.433Z,98101.84
2023-04-15T05:40:33.062Z,98105.19
2023-04-15T05:43:01.782Z,98106.06
2023-04-15T05:45:32.499Z,98106.34
2023-04-15T05:48:01.213Z,98103.34
2023-04-15T05:50:29.958Z,98106.53
2023-04-15T05:52:58.679Z,98105.97
2023-04-15T05:55:27.433Z,98113.97
2023-04-15T05:57:56.039Z,98113.19
2023-04-15T06:00:24.590Z,98115.09
2023-04-15T06:02:54.801Z,98111.97
2023-04-15T06:05:24.073Z,98106.06
2023-04-15T06:07:52.760Z,98107.09
2023-04-15T06:10:21.422Z,98112.22
2023-04-15T06:12:50.086Z,98111.03
2023-04-15T06:15:18.843Z,98104.50
2023-04-15T06:17:47.543Z,98113.13
2023-04-15T06:20:17.739Z,98117.16
2023-04-15T06:22:46.426Z,98114.97
2023-04-15T06:25:15.081Z,98119.91
2023-04-15T06:27:43.910Z,98119.75
2023-04-15T06:30:14.780Z,98116.72
2023-04-15T06:32:43.646Z,98113.41
2023-04-15T06:35:13.783Z,98114.84
2023-04-15T06:37:43.730Z,98120.91
2023-04-15T06:40:13.319Z,98119.75
2023-04-15T06:42:41.914Z,98120.38
2023-04-15T06:45:11.475Z,98125.00
2023-04-15T06:47:40.821Z,98124.59
2023-04-15T06:50:11.421Z,98130.22
2023-04-15T06:52:40.025Z,98133.03
2023-04-15T06:55:10.770Z,98131.22
2023-04-15T06:57:39.526Z,98129.22
2023-04-15T07:00:11.125Z,98127.03
2023-04-15T07:02:39.773Z,98134.81
2023-04-15T07:05:08.802Z,98125.63
2023-04-15T07:07:38.271Z,98121.06
2023-04-15T07:10:08.259Z,98122.84
2023-04-15T07:12:38.470Z,98124.06
2023-04-15T07:15:08.245Z,98116.47
2023-04-15T07:17:37.094Z,98116.88
2023-04-15T07:20:06.430Z,98108.06
2023-04-15T07:22:35.076Z,98109.25
2023-04-15T07:25:03.737Z,98111.47
2023-04-15T07:27:32.478Z,98111.28
2023-04-15T07:30:02.483Z,98117.63
2023-04-15T07:32:31.114Z,98105.84
2023-04-15T07:35:00.175Z,98111.63
2023-04-15T07:37:29.618Z,98103.41
2023-04-15T07:39:58.397Z,98109.97
2023-04-15T07:42:27.043Z,98106.84
2023-04-15T07:44:55.831Z,98103.56
2023-04-15T07:47:26.333Z,98108.88
2023-04-15T07:49:54.947Z,98111.13
2023-04-15T07:52:23.542Z,98112.19
2023-04-15T07:54:52.173Z,98106.63
2023-04-15T07:57:21.063Z,98097.84
2023-04-15T07:59:49.712Z,98102.91
2023-04-15T08:02:18.410Z,98106.50
2023-04-15T08:04:48.728Z,98101.91
2023-04-15T08:07:18.082Z,98101.75
2023-04-15T08:09:46.953Z,98095.66
2023-04-15T08:12:15.932Z,98101.94
2023-04-15T08:14:44.680Z,98098.22
2023-04-15T08:17:13.375Z,98087.63
2023-04-15T08:19:42.410Z,98084.03
2023-04-15T08:22:18.031Z,98084.81
2023-04-15T08:24:47.342Z,98089.06
2023-04-15T08:27:15.970Z,98080.00
2023-04-15T08:29:45.567Z,98080.72
2023-04-15T08:32:14.893Z,98084.03
2023-04-15T08:34:43.535Z,98089.44
2023-04-15T08:37:13.627Z,98089.81
2023-04-15T08:39:42.282Z,98076.47
2023-04-15T08:42:13.650Z,98073.09
2023-04-15T08:44:42.550Z,98078.75
2023-04-15T08:47:14.188Z,98075.19
2023-04-15T08:49:44.109Z,98072.50
2023-04-15T08:52:14.376Z,98073.06
2023-04-15T08:54:43.125Z,98075.34
2023-04-15T08:57:12.001Z,98064.72
2023-04-15T08:59:40.800Z,98063.97
2023-04-15T09:02:09.576Z,98066.31
2023-04-15T09:04:38.220Z,98067.13
2023-04-15T09:07:06.852Z,98059.47
2023-04-15T09:09:37.502Z,98064.22
2023-04-15T09:12:06.106Z,98058.84
2023-04-15T09:14:35.082Z,98058.81
2023-04-15T09:17:04.951Z,98056.53
2023-04-15T09:19:34.665Z,98063.47
2023-04-15T09:22:03.847Z,98063.06
2023-04-15T09:24:39.719Z,98054.84
2023-04-15T09:27:08.852Z,98079.63
2023-04-15T09:29:38.386Z,98060.88
2023-04-15T09:32:14.732Z,98056.13
2023-04-15T09:34:44.533Z,98052.03
2023-04-15T09:37:24.497Z,98067.91
2023-04-15T09:39:58.961Z,98070.16
2023-04-15T09:42:29.116Z,98068.66
2023-04-15T09:44:58.161Z,98074.22
2023-04-15T09:47:30.460Z,98069.28
2023-04-15T09:49:59.813Z,98072.78
2023-04-15T09:52:29.562Z,98079.13
2023-04-15T09:55:00.868Z,98076.19
2023-04-15T09:57:35.609Z,98072.75
2023-04-15T10:00:05.173Z,98082.41
2023-04-15T10:02:37.185Z,98076.13
2023-04-15T10:05:07.222Z,98086.72
2023-04-15T10:07:36.147Z,98082.81
2023-04-15T10:10:07.544Z,98087.75
2023-04-15T10:12:38.528Z,98077.66
2023-04-15T10:15:08.115Z,98087.47
2023-04-15T10:17:37.289Z,98084.38
2023-04-15T10:20:07.637Z,98098.28
2023-04-15T10:22:36.685Z,98095.72
2023-04-15T10:25:07.793Z,98095.56
2023-04-15T10:27:37.250Z,98105.50
2023-04-15T10:30:07.679Z,98094.66
2023-04-15T10:32:36.665Z,98097.34
2023-04-15T10:35:06.685Z,98096.88
2023-04-15T10:37:37.388Z,98094.75
2023-04-15T10:40:27.219Z,98103.69
2023-04-15T10:42:56.976Z,98104.72
2023-04-15T10:45:28.202Z,98098.19
2023-04-15T10:47:58.168Z,98106.91
2023-04-15T10:50:28.230Z,98104.59
2023-04-15T10:52:57.805Z,98100.06
2023-04-15T10:55:28.325Z,98099.06
2023-04-15T10:58:00.865Z,98115.41
2023-04-15T11:00:31.431Z,98113.81
2023-04-15T11:03:01.158Z,98120.94
2023-04-15T11:05:51.523Z,98108.00
2023-04-15T11:08:20.973Z,98114.47
2023-04-15T11:10:57.727Z,98116.06
2023-04-15T11:13:28.837Z,98111.06
2023-04-15T11:16:02.096Z,98116.81
2023-04-15T11:18:32.864Z,98120.19
2023-04-15T11:21:03.771Z,98111.47
2023-04-15T11:23:34.494Z,98112.28
2023-04-15T11:26:09.193Z,98108.13
2023-04-15T11:28:39.196Z,98114.19
2023-04-15T11:31:10.749Z,98112.03
2023-04-15T11:33:45.791Z,98109.66
2023-04-15T11:36:14.802Z,98107.84
2023-04-15T11:38:44.277Z,98105.22
2023-04-15T11:41:14.317Z,98114.16
2023-04-15T11:43:43.334Z,98107.84
2023-04-15T11:46:11.985Z,98113.41
2023-04-15T11:48:45.232Z,98118.41
2023-04-15T11:51:15.345Z,98118.44
2023-04-15T11:53:46.330Z,98116.81
2023-04-15T11:56:21.272Z,98125.47
2023-04-15T11:58:53.690Z,98130.38
2023-04-15T12:01:23.141Z,98137.19
2023-04-15T12:03:52.470Z,98150.19
2023-04-15T12:06:22.951Z,98162.56
2023-04-15T12:09:15.681Z,98164.28
2023-04-15T12:11:47.150Z,98163.00
2023-04-15T12:14:23.308Z,98157.09
2023-04-15T12:16:53.964Z,98157.09
2023-04-15T12:19:27.631Z,98151.50
2023-04-15T12:22:00.645Z,98153.47
2023-04-15T12:24:32.740Z,98154.72
2023-04-15T12:27:06.068Z,98157.44
2023-04-15T12:29:36.735Z,98163.19
2023-04-15T12:32:07.666Z,98172.75
2023-04-15T12:34:37.721Z,98173.69
2023-04-15T12:37:07.633Z,98185.47
2023-04-15T12:39:37.233Z,98220.81
2023-04-15T12:42:07.716Z,98234.56
2023-04-15T12:44:36.714Z,98258.56
2023-04-15T12:47:05.705Z,98277.44
2023-04-15T12:49:35.579Z,98282.31
2023-04-15T12:52:04.913Z,98280.16
2023-04-15T12:54:34.324Z,98285.44
2023-04-15T12:57:06.414Z,98289.09
2023-04-15T12:59:37.482Z,98290.78
2023-04-15T13:02:06.329Z,98290.34
2023-04-15T13:04:35.119Z,98283.75
2023-04-15T13:07:03.923Z,98276.00
2023-04-15T13:09:33.414Z,98282.03
2023-04-15T13:12:03.054Z,98276.69
2023-04-15T13:14:32.002Z,98285.66
2023-04-15T13:17:04.361Z,98290.78
2023-04-15T13:19:33.433Z,98279.97
2023-04-15T13:22:02.444Z,98279.19
2023-04-15T13:24:31.963Z,98278.94
2023-04-15T13:27:00.953Z,98283.84
2023-04-15T13:29:29.562Z,98283.50
2023-04-15T13:31:58.211Z,98287.03
2023-04-15T13:34:28.199Z,98280.44
2023-04-15T13:36:56.847Z,98285.34
2023-04-15T13:39:25.561Z,98299.66
2023-04-15T13:41:54.250Z,98305.91
2023-04-15T13:44:23.863Z,98305.91
2023-04-15T13:46:53.779Z,98307.25
2023-04-15T13:49:22.497Z,98307.56
2023-04-15T13:51:52.769Z,98305.03
2023-04-15T13:54:21.551Z,98308.09
2023-04-15T13:56:50.416Z,98301.16
2023-04-15T13:59:19.165Z,98307.19
2023-04-15T14:01:47.847Z,98296.63
2023-04-15T14:04:16.675Z,98305.16
2023-04-15T14:06:45.748Z,98299.09
2023-04-15T14:09:15.774Z,98294.09
2023-04-15T14:11:44.563Z,98287.38
2023-04-15T14:14:15.236Z,98301.53
2023-04-15T14:16:44.985Z,98310.03
2023-04-15T14:19:13.614Z,98315.25
2023-04-15T14:21:42.265Z,98314.78
2023-04-15T14:24:11.006Z,98325.34
2023-04-15T14:26:41.102Z,98317.41
2023-04-15T14:29:10.392Z,98323.84
2023-04-15T14:31:39.117Z,98327.59
2023-04-15T14:34:10.025Z,98329.09
2023-04-15T14:36:39.797Z,98333.31
2023-04-15T14:39:09.596Z,98339.31
2023-04-15T14:41:38.650Z,98347.66
2023-04-15T14:44:11.484Z,98353.97
2023-04-15T14:46:40.681Z,98353.19
2023-04-15T14:49:09.483Z,98360.03
2023-04-15T14:51:39.217Z,98367.22
2023-04-15T14:54:09.390Z,98373.25
2023-04-15T14:56:37.994Z,98371.66
2023-04-15T14:59:08.156Z,98377.25
2023-04-15T15:01:36.920Z,98371.00
2023-04-15T15:04:05.742Z,98385.38
2023-04-15T15:06:34.526Z,98390.59
2023-04-15T15:09:03.558Z,98391.75
2023-04-15T15:11:32.638Z,98391.97
2023-04-15T15:14:01.278Z,98399.50
2023-04-15T15:16:31.612Z,98397.91
2023-04-15T15:19:00.301Z,98402.59
2023-04-15T15:21:28.955Z,98406.44
2023-04-15T15:23:57.789Z,98420.22
2023-04-15T15:26:28.037Z,98417.16
2023-04-15T15:28:57.355Z,98419.41
2023-04-15T15:31:26.017Z,98439.56
2023-04-15T15:33:55.986Z,98432.28
2023-04-15T15:36:24.641Z,98437.38
2023-04-15T15:38:53.256Z,98436.03
2023-04-15T15:41:22.223Z,98426.91
2023-04-15T15:43:50.946Z,98423.97
2023-04-15T15:46:19.684Z,98420.75
2023-04-15T15:48:48.678Z,98437.66
2023-04-15T15:51:18.644Z,98432.66
2023-04-15T15:53:47.268Z,98433.47
2023-04-15T15:56:15.962Z,98453.81
2023-04-15T15:58:45.052Z,98445.41
2023-04-15T16:01:13.856Z,98454.41
2023-04-15T16:03:42.922Z,98464.16
2023-04-15T16:06:11.658Z,98465.97
2023-04-15T16:08:41.618Z,98465.63
2023-04-15T16:11:10.335Z,98477.41
2023-04-15T16:13:38.976Z,98483.00
2023-04-15T16:16:08.125Z,98484.31
2023-04-15T16:18:36.764Z,98499.22
2023-04-15T16:21:06.312Z,98491.59
2023-04-15T16:23:35.080Z,98496.81
2023-04-15T16:26:05.164Z,98508.13
2023-04-15T16:28:33.853Z,98505.84
2023-04-15T16:31:02.857Z,98509.09
2023-04-15T16:33:31.888Z,98519.06
2023-04-15T16:36:01.132Z,98517.69
2023-04-15T16:38:30.516Z,98528.13
2023-04-15T16:41:01.172Z,98518.63
2023-04-15T16:43:31.642Z,98528.00
2023-04-15T16:46:02.276Z,98533.06
2023-04-15T16:48:31.275Z,98532.50
2023-04-15T16:51:00.717Z,98538.16
2023-04-15T16:53:30.251Z,98542.66
2023-04-15T16:55:59.292Z,98545.84
2023-04-15T16:58:28.936Z,98546.72
2023-04-15T17:00:59.831Z,98548.59
2023-04-15T17:03:29.261Z,98560.50
2023-04-15T17:05:58.491Z,98560.50
2023-04-15T17:08:27.652Z,98568.16
2023-04-15T17:10:56.694Z,98567.41
2023-04-15T17:13:27.098Z,98573.66
2023-04-15T17:15:56.163Z,98576.19
2023-04-15T17:18:26.675Z,98580.81
2023-04-15T17:20:56.440Z,98581.22
2023-04-15T17:23:26.144Z,98580.25
2023-04-15T17:25:55.311Z,98591.53
2023-04-15T17:28:24.009Z,98598.81
2023-04-15T17:30:52.733Z,98607.03
2023-04-15T17:33:56.410Z,98611.13
2023-04-15T17:36:11.575Z,98620.13
2023-04-15T17:38:40.190Z,98625.63
2023-04-15T17:41:08.818Z,98621.81
2023-04-15T17:43:37.447Z,98625.63
2023-04-15T17:46:07.676Z,98625.50
2023-04-15T17:48:36.295Z,98632.91
2023-04-15T17:51:04.876Z,98635.91
2023-04-15T17:53:34.901Z,98638.72
2023-04-15T17:56:03.573Z,98630.69
2023-04-15T17:58:32.367Z,98631.91
2023-04-15T18:01:01.019Z,98640.72
2023-04-15T18:03:29.872Z,98640.50
2023-04-15T18:05:59.470Z,98642.75
2023-04-15T18:08:28.464Z,98648.19
2023-04-15T18:10:58.496Z,98648.56
2023-04-15T18:13:27.139Z,98659.41
2023-04-15T18:15:56.516Z,98659.81
2023-04-15T18:18:25.170Z,98671.88
2023-04-15T18:20:53.738Z,98670.44
2023-04-15T18:23:22.452Z,98674.88
2023-04-15T18:25:51.100Z,98679.25
2023-04-15T18:28:22.559Z,98680.88
2023-04-15T18:30:51.290Z,98682.72
2023-04-15T18:33:20.924Z,98680.53
2023-04-15T18:35:50.096Z,98687.94
2023-04-15T18:38:18.885Z,98687.75
2023-04-15T18:40:48.089Z,98687.72
2023-04-15T18:43:16.856Z,98690.97
2023-04-15T18:45:47.034Z,98698.56
2023-04-15T18:48:15.968Z,98703.41
2023-04-15T18:50:44.647Z,98701.59
2023-04-15T18:53:13.278Z,98704.97
2023-04-15T18:55:42.015Z,98700.59
2023-04-15T18:58:10.909Z,98711.81
2023-04-15T19:00:41.741Z,98704.63
2023-04-15T19:03:12.245Z,98725.69
2023-04-15T19:05:42.166Z,98732.69
2023-04-15T19:08:11.651Z,98735.72
2023-04-15T19:10:40.444Z,98741.94
2023-04-15T19:13:09.196Z,98742.31
2023-04-15T19:15:37.836Z,98741.91
2023-04-15T19:18:10.478Z,98743.91
2023-04-15T19:20:40.980Z,98748.31
2023-04-15T19:23:09.636Z,98746.31
2023-04-15T19:25:39.189Z,98749.13
2023-04-15T19:28:08.098Z,98750.91
2023-04-15T19:30:37.010Z,98751.53
2023-04-15T19:33:06.457Z,98766.38
2023-04-15T19:35:36.072Z,98757.53
2023-04-15T19:38:07.983Z,98759.16
2023-04-15T19:40:36.638Z,98759.75
2023-04-15T19:43:05.324Z,98764.38
2023-04-15T19:45:35.299Z,98764.38
2023-04-15T19:48:04.070Z,98761.38
2023-04-15T19:50:33.088Z,98767.59
2023-04-15T19:53:01.704Z,98768.59
2023-04-15T19:55:31.700Z,98768.38
2023-04-15T19:58:00.653Z,98769.59
2023-04-15T20:00:29.335Z,98769.78
2023-04-15T20:02:58.114Z,98767.59
2023-04-15T20:05:26.892Z,98765.78
2023-04-15T20:07:55.882Z,98766.38
2023-04-15T20:10:25.557Z,98773.19
2023-04-15T20:12:55.560Z,98762.75
2023-04-15T20:15:24.411Z,98771.59
2023-04-15T20:17:53.132Z,98760.75
2023-04-15T20:20:22.134Z,98766.78
2023-04-15T20:22:52.637Z,98772.00
2023-04-15T20:25:21.367Z,98762.78
2023-04-15T20:27:50.406Z,98774.00
2023-04-15T20:30:23.153Z,98775.59
2023-04-15T20:32:51.990Z,98776.00
2023-04-15T20:35:20.828Z,98772.00
2023-04-15T20:37:50.030Z,98768.19
2023-04-15T20:40:18.700Z,98772.41
2023-04-15T20:42:47.328Z,98772.59
2023-04-15T20:45:16.100Z,98766.19
2023-04-15T20:47:46.285Z,98766.78
2023-04-15T20:50:15.019Z,98782.81
2023-04-15T20:52:43.738Z,98780.22
2023-04-15T20:55:12.450Z,98779.63
2023-04-15T20:57:41.179Z,98778.00
2023-04-15T21:00:11.110Z,98782.63
2023-04-15T21:02:39.860Z,98789.63
2023-04-15T21:05:10.521Z,98786.84
2023-04-15T21:07:39.125Z,98784.63
2023-04-15T21:10:08.539Z,98793.06
2023-04-15T21:12:37.735Z,98786.81
2023-04-15T21:15:07.182Z,98793.25
2023-04-15T21:17:36.232Z,98797.06
2023-04-15T21:20:05.482Z,98793.03
2023-04-15T21:22:35.507Z,98801.28
2023-04-15T21:25:04.320Z,98797.66
2023-04-15T21:27:33.118Z,98796.22
2023-04-15T21:30:01.741Z,98805.47
2023-04-15T21:32:30.711Z,98806.06
2023-04-15T21:34:59.747Z,98806.88
2023-04-15T21:37:28.351Z,98810.06
2023-04-15T21:39:58.349Z,98820.09
2023-04-15T21:42:27.290Z,98820.69
2023-04-15T21:44:56.015Z,98829.94
2023-04-15T21:47:24.714Z,98825.50
2023-04-15T21:49:53.439Z,98824.09
2023-04-15T21:52:22.032Z,98828.50
2023-04-15T21:54:50.685Z,98832.53
2023-04-15T21:57:20.612Z,98834.50
2023-04-15T21:59:49.301Z,98835.13
2023-04-15T22:02:18.015Z,98841.94
2023-04-15T22:04:46.705Z,98835.91
2023-04-15T22:07:15.519Z,98846.31
2023-04-15T22:09:44.226Z,98840.53
2023-04-15T22:12:12.861Z,98838.50
2023-04-15T22:14:42.828Z,98844.13
2023-04-15T22:17:11.531Z,98850.13
2023-04-15T22:19:41.090Z,98845.72
2023-04-15T22:22:09.768Z,98850.53
2023-04-15T22:24:40.043Z,98854.75
2023-04-15T22:27:09.414Z,98858.94
2023-04-15T22:29:38.042Z,98860.16
2023-04-15T22:32:08.187Z,98858.38
2023-04-15T22:34:36.805Z,98867.78
2023-04-15T22:37:05.532Z,98869.78
2023-04-15T22:39:34.237Z,98867.78
2023-04-15T22:42:03.192Z,98871.75
2023-04-15T22:44:31.830Z,98875.78
2023-04-15T22:47:00.551Z,98883.19
2023-04-15T22:49:30.510Z,98886.00
2023-04-15T22:51:59.183Z,98880.97
2023-04-15T22:54:27.801Z,98886.78
2023-04-15T22:56:56.423Z,98881.19
2023-04-15T22:59:25.266Z,98882.59
2023-04-15T23:01:54.306Z,98888.56
2023-04-15T23:04:26.948Z,98890.38
2023-04-15T23:06:57.901Z,98889.38
2023-04-15T23:09:27.217Z,98893.00
2023-04-15T23:11:56.579Z,98887.81
2023-04-15T23:14:26.169Z,98891.78
2023-04-15T23:16:54.998Z,98889.59
2023-04-15T23:19:23.723Z,98890.59
2023-04-15T23:21:52.363Z,98894.19
2023-04-15T23:24:22.282Z,98890.19
2023-04-15T23:26:52.863Z,98900.41
2023-04-15T23:29:21.448Z,98896.59
2023-04-15T23:31:50.069Z,98905.03
2023-04-15T23:34:19.012Z,98897.00
2023-04-15T23:36:47.757Z,98903.81
2023-04-15T23:39:16.420Z,98909.00
2023-04-15T23:41:46.416Z,98916.81
2023-04-15T23:44:14.965Z,98911.25
2023-04-15T23:46:43.639Z,98913.22
2023-04-15T23:49:12.380Z,98912.25
2023-04-15T23:51:41.058Z,98918.63
2023-04-15T23:54:09.713Z,98915.03
2023-04-15T23:56:38.276Z,98920.06
2023-04-15T23:59:08.494Z,98917.66
